sensor_id;sensor_type;location;lat;lon;timestamp;P1;durP1;ratioP1;P2;durP2;ratioP2
42198;SDS011;27868;45.184;5.786;2022-08-03T00:00:27;1.20;;;0.70;;
42198;SDS011;27868;45.184;5.786;2022-08-03T00:03:12;0.80;;;0.70;;
42198;SDS011;27868;45.184;5.786;2022-08-03T00:05:57;1.30;;;0.90;;
42198;SDS011;27868;45.184;5.786;2022-08-03T00:08:41;2.28;;;0.80;;
42198;SDS011;27868;45.184;5.786;2022-08-03T00:11:26;1.40;;;0.88;;
42198;SDS011;27868;45.184;5.786;2022-08-03T00:14:10;3.03;;;0.70;;
42198;SDS011;27868;45.184;5.786;2022-08-03T00:16:55;1.60;;;0.90;;
42198;SDS011;27868;45.184;5.786;2022-08-03T00:19:40;4.28;;;1.05;;
42198;SDS011;27868;45.184;5.786;2022-08-03T00:22:24;2.72;;;0.95;;
42198;SDS011;27868;45.184;5.786;2022-08-03T00:25:09;1.95;;;0.80;;
42198;SDS011;27868;45.184;5.786;2022-08-03T00:27:53;3.00;;;0.90;;
42198;SDS011;27868;45.184;5.786;2022-08-03T00:30:38;2.15;;;1.10;;
42198;SDS011;27868;45.184;5.786;2022-08-03T00:33:22;1.70;;;0.50;;
42198;SDS011;27868;45.184;5.786;2022-08-03T00:36:07;0.98;;;0.80;;
42198;SDS011;27868;45.184;5.786;2022-08-03T00:38:51;1.58;;;0.70;;
42198;SDS011;27868;45.184;5.786;2022-08-03T00:41:36;1.80;;;0.88;;
42198;SDS011;27868;45.184;5.786;2022-08-03T00:44:20;2.08;;;0.90;;
42198;SDS011;27868;45.184;5.786;2022-08-03T00:47:05;0.90;;;0.68;;
42198;SDS011;27868;45.184;5.786;2022-08-03T00:49:50;2.03;;;0.88;;
42198;SDS011;27868;45.184;5.786;2022-08-03T00:52:35;4.53;;;1.00;;
42198;SDS011;27868;45.184;5.786;2022-08-03T00:55:19;2.05;;;0.90;;
42198;SDS011;27868;45.184;5.786;2022-08-03T00:58:04;2.83;;;0.80;;
42198;SDS011;27868;45.184;5.786;2022-08-03T01:00:49;2.22;;;0.90;;
42198;SDS011;27868;45.184;5.786;2022-08-03T01:03:34;2.10;;;0.95;;
42198;SDS011;27868;45.184;5.786;2022-08-03T01:06:19;3.10;;;0.90;;
42198;SDS011;27868;45.184;5.786;2022-08-03T01:09:22;2.47;;;0.80;;
42198;SDS011;27868;45.184;5.786;2022-08-03T01:12:41;2.13;;;0.80;;
42198;SDS011;27868;45.184;5.786;2022-08-03T01:18:37;1.45;;;0.80;;
42198;SDS011;27868;45.184;5.786;2022-08-03T01:21:33;1.48;;;0.70;;
42198;SDS011;27868;45.184;5.786;2022-08-03T01:28:01;2.05;;;1.02;;
42198;SDS011;27868;45.184;5.786;2022-08-03T01:31:06;1.90;;;0.73;;
42198;SDS011;27868;45.184;5.786;2022-08-03T01:33:56;1.50;;;0.85;;
42198;SDS011;27868;45.184;5.786;2022-08-03T01:36:47;3.55;;;1.00;;
42198;SDS011;27868;45.184;5.786;2022-08-03T01:39:35;2.53;;;0.90;;
42198;SDS011;27868;45.184;5.786;2022-08-03T01:42:22;1.00;;;0.73;;
42198;SDS011;27868;45.184;5.786;2022-08-03T01:45:10;1.02;;;0.63;;
42198;SDS011;27868;45.184;5.786;2022-08-03T01:47:56;2.40;;;0.73;;
42198;SDS011;27868;45.184;5.786;2022-08-03T01:50:41;3.05;;;0.75;;
42198;SDS011;27868;45.184;5.786;2022-08-03T01:53:27;1.67;;;0.80;;
42198;SDS011;27868;45.184;5.786;2022-08-03T01:56:14;2.75;;;0.93;;
42198;SDS011;27868;45.184;5.786;2022-08-03T01:59:00;4.65;;;1.08;;
42198;SDS011;27868;45.184;5.786;2022-08-03T02:01:47;1.65;;;0.90;;
42198;SDS011;27868;45.184;5.786;2022-08-03T02:04:32;1.58;;;0.90;;
42198;SDS011;27868;45.184;5.786;2022-08-03T02:07:19;2.45;;;0.93;;
42198;SDS011;27868;45.184;5.786;2022-08-03T02:10:04;1.75;;;0.85;;
42198;SDS011;27868;45.184;5.786;2022-08-03T02:12:50;1.30;;;0.90;;
42198;SDS011;27868;45.184;5.786;2022-08-03T02:15:37;2.92;;;0.73;;
42198;SDS011;27868;45.184;5.786;2022-08-03T02:18:22;1.23;;;0.70;;
42198;SDS011;27868;45.184;5.786;2022-08-03T02:21:07;2.28;;;1.00;;
42198;SDS011;27868;45.184;5.786;2022-08-03T02:23:54;2.42;;;0.80;;
42198;SDS011;27868;45.184;5.786;2022-08-03T02:26:39;1.85;;;0.80;;
42198;SDS011;27868;45.184;5.786;2022-08-03T02:29:26;1.50;;;0.88;;
42198;SDS011;27868;45.184;5.786;2022-08-03T02:32:16;3.55;;;0.93;;
42198;SDS011;27868;45.184;5.786;2022-08-03T02:35:10;1.10;;;0.80;;
42198;SDS011;27868;45.184;5.786;2022-08-03T02:38:01;3.53;;;0.70;;
42198;SDS011;27868;45.184;5.786;2022-08-03T02:40:48;2.65;;;0.90;;
42198;SDS011;27868;45.184;5.786;2022-08-03T02:43:35;1.95;;;0.85;;
42198;SDS011;27868;45.184;5.786;2022-08-03T02:46:24;4.00;;;1.55;;
42198;SDS011;27868;45.184;5.786;2022-08-03T02:49:12;1.83;;;0.90;;
42198;SDS011;27868;45.184;5.786;2022-08-03T02:51:59;2.40;;;0.90;;
42198;SDS011;27868;45.184;5.786;2022-08-03T02:54:45;2.17;;;0.75;;
42198;SDS011;27868;45.184;5.786;2022-08-03T02:57:32;2.13;;;0.70;;
42198;SDS011;27868;45.184;5.786;2022-08-03T03:00:19;2.35;;;0.90;;
42198;SDS011;27868;45.184;5.786;2022-08-03T03:03:04;2.72;;;0.70;;
42198;SDS011;27868;45.184;5.786;2022-08-03T03:05:50;2.97;;;0.90;;
42198;SDS011;27868;45.184;5.786;2022-08-03T03:08:36;2.20;;;1.00;;
42198;SDS011;27868;45.184;5.786;2022-08-03T03:11:21;2.50;;;0.88;;
42198;SDS011;27868;45.184;5.786;2022-08-03T03:14:08;2.85;;;1.00;;
42198;SDS011;27868;45.184;5.786;2022-08-03T03:16:56;1.83;;;0.98;;
42198;SDS011;27868;45.184;5.786;2022-08-03T03:19:41;1.85;;;0.80;;
42198;SDS011;27868;45.184;5.786;2022-08-03T03:22:28;2.28;;;0.98;;
42198;SDS011;27868;45.184;5.786;2022-08-03T03:25:16;2.05;;;0.80;;
42198;SDS011;27868;45.184;5.786;2022-08-03T03:28:02;3.88;;;1.00;;
42198;SDS011;27868;45.184;5.786;2022-08-03T03:30:47;2.28;;;0.90;;
42198;SDS011;27868;45.184;5.786;2022-08-03T03:33:33;1.58;;;1.05;;
42198;SDS011;27868;45.184;5.786;2022-08-03T03:36:18;1.20;;;0.77;;
42198;SDS011;27868;45.184;5.786;2022-08-03T03:39:03;1.75;;;0.95;;
42198;SDS011;27868;45.184;5.786;2022-08-03T03:41:48;1.80;;;0.90;;
42198;SDS011;27868;45.184;5.786;2022-08-03T03:44:33;3.20;;;0.90;;
42198;SDS011;27868;45.184;5.786;2022-08-03T03:47:17;6.05;;;1.58;;
42198;SDS011;27868;45.184;5.786;2022-08-03T03:50:05;1.35;;;0.98;;
42198;SDS011;27868;45.184;5.786;2022-08-03T03:52:50;2.92;;;0.95;;
42198;SDS011;27868;45.184;5.786;2022-08-03T03:55:35;1.92;;;1.17;;
42198;SDS011;27868;45.184;5.786;2022-08-03T03:58:23;2.60;;;1.10;;
42198;SDS011;27868;45.184;5.786;2022-08-03T04:01:07;1.75;;;0.90;;
42198;SDS011;27868;45.184;5.786;2022-08-03T04:03:52;1.42;;;1.00;;
42198;SDS011;27868;45.184;5.786;2022-08-03T04:06:37;2.55;;;1.23;;
42198;SDS011;27868;45.184;5.786;2022-08-03T04:09:40;9.63;;;1.40;;
42198;SDS011;27868;45.184;5.786;2022-08-03T04:12:45;2.00;;;1.10;;
42198;SDS011;27868;45.184;5.786;2022-08-03T04:15:31;2.92;;;1.10;;
42198;SDS011;27868;45.184;5.786;2022-08-03T04:18:16;1.50;;;0.95;;
42198;SDS011;27868;45.184;5.786;2022-08-03T04:21:05;5.25;;;1.17;;
42198;SDS011;27868;45.184;5.786;2022-08-03T04:23:54;2.50;;;1.08;;
42198;SDS011;27868;45.184;5.786;2022-08-03T04:26:44;2.95;;;1.00;;
42198;SDS011;27868;45.184;5.786;2022-08-03T04:29:32;1.98;;;1.00;;
42198;SDS011;27868;45.184;5.786;2022-08-03T04:32:20;2.22;;;1.23;;
42198;SDS011;27868;45.184;5.786;2022-08-03T04:35:09;2.28;;;1.10;;
42198;SDS011;27868;45.184;5.786;2022-08-03T04:37:53;3.75;;;1.23;;
42198;SDS011;27868;45.184;5.786;2022-08-03T04:40:42;1.88;;;1.00;;
42198;SDS011;27868;45.184;5.786;2022-08-03T04:43:31;3.95;;;1.35;;
42198;SDS011;27868;45.184;5.786;2022-08-03T04:46:17;1.98;;;1.13;;
42198;SDS011;27868;45.184;5.786;2022-08-03T04:49:05;1.95;;;1.10;;
42198;SDS011;27868;45.184;5.786;2022-08-03T04:51:51;1.67;;;1.10;;
42198;SDS011;27868;45.184;5.786;2022-08-03T04:54:42;1.27;;;1.00;;
42198;SDS011;27868;45.184;5.786;2022-08-03T04:57:28;1.80;;;0.95;;
42198;SDS011;27868;45.184;5.786;2022-08-03T05:00:13;4.07;;;1.17;;
42198;SDS011;27868;45.184;5.786;2022-08-03T05:02:58;2.53;;;1.17;;
42198;SDS011;27868;45.184;5.786;2022-08-03T05:05:43;2.53;;;1.00;;
42198;SDS011;27868;45.184;5.786;2022-08-03T05:08:28;2.53;;;1.42;;
42198;SDS011;27868;45.184;5.786;2022-08-03T05:11:13;2.17;;;1.10;;
42198;SDS011;27868;45.184;5.786;2022-08-03T05:13:58;1.27;;;0.95;;
42198;SDS011;27868;45.184;5.786;2022-08-03T05:16:43;4.45;;;1.65;;
42198;SDS011;27868;45.184;5.786;2022-08-03T05:19:28;3.10;;;0.98;;
42198;SDS011;27868;45.184;5.786;2022-08-03T05:22:13;1.13;;;1.00;;
42198;SDS011;27868;45.184;5.786;2022-08-03T05:24:59;1.90;;;1.10;;
42198;SDS011;27868;45.184;5.786;2022-08-03T05:27:44;2.65;;;1.30;;
42198;SDS011;27868;45.184;5.786;2022-08-03T05:30:29;3.63;;;1.10;;
42198;SDS011;27868;45.184;5.786;2022-08-03T05:33:14;3.45;;;1.10;;
42198;SDS011;27868;45.184;5.786;2022-08-03T05:35:58;5.25;;;1.35;;
42198;SDS011;27868;45.184;5.786;2022-08-03T05:38:43;3.45;;;1.05;;
42198;SDS011;27868;45.184;5.786;2022-08-03T05:41:28;3.08;;;1.23;;
42198;SDS011;27868;45.184;5.786;2022-08-03T05:44:12;3.70;;;1.38;;
42198;SDS011;27868;45.184;5.786;2022-08-03T05:46:57;2.00;;;1.08;;
42198;SDS011;27868;45.184;5.786;2022-08-03T05:49:42;2.40;;;1.30;;
42198;SDS011;27868;45.184;5.786;2022-08-03T05:52:27;4.20;;;1.20;;
42198;SDS011;27868;45.184;5.786;2022-08-03T05:55:12;1.80;;;1.00;;
42198;SDS011;27868;45.184;5.786;2022-08-03T05:57:56;2.08;;;1.05;;
42198;SDS011;27868;45.184;5.786;2022-08-03T06:00:41;2.35;;;1.00;;
42198;SDS011;27868;45.184;5.786;2022-08-03T06:03:25;2.28;;;1.10;;
42198;SDS011;27868;45.184;5.786;2022-08-03T06:06:11;1.95;;;1.35;;
42198;SDS011;27868;45.184;5.786;2022-08-03T06:08:55;4.15;;;1.15;;
42198;SDS011;27868;45.184;5.786;2022-08-03T06:11:40;4.63;;;1.10;;
42198;SDS011;27868;45.184;5.786;2022-08-03T06:14:25;3.03;;;1.50;;
42198;SDS011;27868;45.184;5.786;2022-08-03T06:17:10;7.80;;;1.50;;
42198;SDS011;27868;45.184;5.786;2022-08-03T06:19:54;3.40;;;1.80;;
42198;SDS011;27868;45.184;5.786;2022-08-03T06:22:39;4.60;;;1.30;;
42198;SDS011;27868;45.184;5.786;2022-08-03T06:25:24;5.35;;;1.58;;
42198;SDS011;27868;45.184;5.786;2022-08-03T06:28:09;3.53;;;1.55;;
42198;SDS011;27868;45.184;5.786;2022-08-03T06:30:54;4.38;;;1.50;;
42198;SDS011;27868;45.184;5.786;2022-08-03T06:33:39;6.28;;;1.50;;
42198;SDS011;27868;45.184;5.786;2022-08-03T06:36:23;4.55;;;1.85;;
42198;SDS011;27868;45.184;5.786;2022-08-03T06:39:08;4.10;;;1.50;;
42198;SDS011;27868;45.184;5.786;2022-08-03T06:41:53;4.43;;;1.33;;
42198;SDS011;27868;45.184;5.786;2022-08-03T06:44:37;5.40;;;1.55;;
42198;SDS011;27868;45.184;5.786;2022-08-03T06:47:21;2.78;;;1.40;;
42198;SDS011;27868;45.184;5.786;2022-08-03T06:50:06;2.42;;;1.40;;
42198;SDS011;27868;45.184;5.786;2022-08-03T06:52:52;2.20;;;1.30;;
42198;SDS011;27868;45.184;5.786;2022-08-03T06:55:37;4.95;;;1.70;;
42198;SDS011;27868;45.184;5.786;2022-08-03T06:58:21;4.53;;;2.00;;
42198;SDS011;27868;45.184;5.786;2022-08-03T07:01:06;6.32;;;1.63;;
42198;SDS011;27868;45.184;5.786;2022-08-03T07:03:51;4.70;;;1.80;;
42198;SDS011;27868;45.184;5.786;2022-08-03T07:06:38;2.63;;;1.45;;
42198;SDS011;27868;45.184;5.786;2022-08-03T07:09:22;4.72;;;1.60;;
42198;SDS011;27868;45.184;5.786;2022-08-03T07:12:07;4.25;;;1.77;;
42198;SDS011;27868;45.184;5.786;2022-08-03T07:14:51;5.38;;;1.73;;
42198;SDS011;27868;45.184;5.786;2022-08-03T07:17:36;2.55;;;1.35;;
42198;SDS011;27868;45.184;5.786;2022-08-03T07:20:22;3.03;;;1.23;;
42198;SDS011;27868;45.184;5.786;2022-08-03T07:23:06;2.67;;;1.50;;
42198;SDS011;27868;45.184;5.786;2022-08-03T07:25:52;2.38;;;1.70;;
42198;SDS011;27868;45.184;5.786;2022-08-03T07:28:37;2.40;;;1.50;;
42198;SDS011;27868;45.184;5.786;2022-08-03T07:31:21;5.15;;;1.58;;
42198;SDS011;27868;45.184;5.786;2022-08-03T07:34:06;6.88;;;1.50;;
42198;SDS011;27868;45.184;5.786;2022-08-03T07:36:50;4.25;;;1.60;;
42198;SDS011;27868;45.184;5.786;2022-08-03T07:39:35;2.75;;;1.52;;
42198;SDS011;27868;45.184;5.786;2022-08-03T07:42:19;4.93;;;1.40;;
42198;SDS011;27868;45.184;5.786;2022-08-03T07:45:05;3.08;;;1.55;;
42198;SDS011;27868;45.184;5.786;2022-08-03T07:47:51;4.20;;;1.50;;
42198;SDS011;27868;45.184;5.786;2022-08-03T07:50:36;3.38;;;1.30;;
42198;SDS011;27868;45.184;5.786;2022-08-03T07:53:20;7.20;;;1.70;;
42198;SDS011;27868;45.184;5.786;2022-08-03T07:56:05;3.08;;;1.67;;
42198;SDS011;27868;45.184;5.786;2022-08-03T07:58:50;3.47;;;1.30;;
42198;SDS011;27868;45.184;5.786;2022-08-03T08:01:35;3.45;;;1.33;;
42198;SDS011;27868;45.184;5.786;2022-08-03T08:04:21;3.30;;;1.63;;
42198;SDS011;27868;45.184;5.786;2022-08-03T08:07:05;4.53;;;1.40;;
42198;SDS011;27868;45.184;5.786;2022-08-03T08:09:50;2.55;;;1.33;;
42198;SDS011;27868;45.184;5.786;2022-08-03T08:12:35;4.60;;;1.40;;
42198;SDS011;27868;45.184;5.786;2022-08-03T08:15:22;4.32;;;1.70;;
42198;SDS011;27868;45.184;5.786;2022-08-03T08:18:07;1.83;;;1.15;;
42198;SDS011;27868;45.184;5.786;2022-08-03T08:20:52;2.78;;;1.30;;
42198;SDS011;27868;45.184;5.786;2022-08-03T08:23:37;3.05;;;1.42;;
42198;SDS011;27868;45.184;5.786;2022-08-03T08:26:22;2.15;;;1.40;;
42198;SDS011;27868;45.184;5.786;2022-08-03T08:29:06;3.78;;;1.20;;
42198;SDS011;27868;45.184;5.786;2022-08-03T08:31:51;5.00;;;1.60;;
42198;SDS011;27868;45.184;5.786;2022-08-03T08:34:35;2.88;;;1.70;;
42198;SDS011;27868;45.184;5.786;2022-08-03T08:37:20;1.90;;;1.38;;
42198;SDS011;27868;45.184;5.786;2022-08-03T08:40:05;5.45;;;1.58;;
42198;SDS011;27868;45.184;5.786;2022-08-03T08:42:51;3.53;;;1.23;;
42198;SDS011;27868;45.184;5.786;2022-08-03T08:45:36;6.72;;;1.70;;
42198;SDS011;27868;45.184;5.786;2022-08-03T08:48:22;3.15;;;1.33;;
42198;SDS011;27868;45.184;5.786;2022-08-03T08:51:09;3.92;;;1.40;;
42198;SDS011;27868;45.184;5.786;2022-08-03T08:53:56;2.85;;;1.50;;
42198;SDS011;27868;45.184;5.786;2022-08-03T08:56:45;2.65;;;1.30;;
42198;SDS011;27868;45.184;5.786;2022-08-03T08:59:32;4.53;;;1.35;;
42198;SDS011;27868;45.184;5.786;2022-08-03T09:02:20;3.05;;;1.30;;
42198;SDS011;27868;45.184;5.786;2022-08-03T09:05:05;2.55;;;1.10;;
42198;SDS011;27868;45.184;5.786;2022-08-03T09:07:54;3.17;;;1.40;;
42198;SDS011;27868;45.184;5.786;2022-08-03T09:10:39;3.22;;;1.40;;
42198;SDS011;27868;45.184;5.786;2022-08-03T09:13:24;3.55;;;1.50;;
42198;SDS011;27868;45.184;5.786;2022-08-03T09:16:10;2.03;;;1.30;;
42198;SDS011;27868;45.184;5.786;2022-08-03T09:19:02;3.80;;;1.33;;
42198;SDS011;27868;45.184;5.786;2022-08-03T09:22:16;2.08;;;1.25;;
42198;SDS011;27868;45.184;5.786;2022-08-03T09:25:03;3.30;;;1.50;;
42198;SDS011;27868;45.184;5.786;2022-08-03T09:27:50;5.28;;;1.40;;
42198;SDS011;27868;45.184;5.786;2022-08-03T09:30:35;5.53;;;1.60;;
42198;SDS011;27868;45.184;5.786;2022-08-03T09:33:22;2.70;;;1.20;;
42198;SDS011;27868;45.184;5.786;2022-08-03T09:36:07;3.72;;;1.30;;
42198;SDS011;27868;45.184;5.786;2022-08-03T09:39:01;2.90;;;1.48;;
42198;SDS011;27868;45.184;5.786;2022-08-03T09:42:06;3.42;;;1.40;;
42198;SDS011;27868;45.184;5.786;2022-08-03T09:44:54;1.95;;;1.48;;
42198;SDS011;27868;45.184;5.786;2022-08-03T09:47:41;2.08;;;1.45;;
42198;SDS011;27868;45.184;5.786;2022-08-03T09:50:26;3.72;;;1.58;;
42198;SDS011;27868;45.184;5.786;2022-08-03T09:53:10;4.75;;;1.50;;
42198;SDS011;27868;45.184;5.786;2022-08-03T09:55:59;3.63;;;1.55;;
42198;SDS011;27868;45.184;5.786;2022-08-03T09:58:45;2.90;;;1.23;;
42198;SDS011;27868;45.184;5.786;2022-08-03T10:01:34;2.42;;;1.30;;
42198;SDS011;27868;45.184;5.786;2022-08-03T10:04:19;4.53;;;1.60;;
42198;SDS011;27868;45.184;5.786;2022-08-03T10:07:08;4.35;;;1.58;;
42198;SDS011;27868;45.184;5.786;2022-08-03T10:09:57;4.15;;;1.58;;
42198;SDS011;27868;45.184;5.786;2022-08-03T10:12:44;2.22;;;1.52;;
42198;SDS011;27868;45.184;5.786;2022-08-03T10:15:28;2.47;;;1.52;;
42198;SDS011;27868;45.184;5.786;2022-08-03T10:18:14;2.40;;;1.50;;
42198;SDS011;27868;45.184;5.786;2022-08-03T10:21:03;2.60;;;1.30;;
42198;SDS011;27868;45.184;5.786;2022-08-03T10:23:50;4.15;;;1.73;;
42198;SDS011;27868;45.184;5.786;2022-08-03T10:26:38;2.75;;;1.58;;
42198;SDS011;27868;45.184;5.786;2022-08-03T10:29:23;5.70;;;1.88;;
42198;SDS011;27868;45.184;5.786;2022-08-03T10:32:18;2.90;;;1.65;;
42198;SDS011;27868;45.184;5.786;2022-08-03T10:35:13;2.65;;;1.50;;
42198;SDS011;27868;45.184;5.786;2022-08-03T10:38:05;4.13;;;1.67;;
42198;SDS011;27868;45.184;5.786;2022-08-03T10:40:55;4.00;;;1.73;;
42198;SDS011;27868;45.184;5.786;2022-08-03T10:43:45;2.00;;;1.50;;
42198;SDS011;27868;45.184;5.786;2022-08-03T10:46:32;4.32;;;1.80;;
42198;SDS011;27868;45.184;5.786;2022-08-03T10:49:18;2.63;;;1.70;;
42198;SDS011;27868;45.184;5.786;2022-08-03T10:52:04;1.90;;;1.50;;
42198;SDS011;27868;45.184;5.786;2022-08-03T10:54:49;6.13;;;1.40;;
42198;SDS011;27868;45.184;5.786;2022-08-03T10:57:52;2.90;;;1.85;;
42198;SDS011;27868;45.184;5.786;2022-08-03T11:00:47;3.70;;;2.17;;
42198;SDS011;27868;45.184;5.786;2022-08-03T11:03:34;3.63;;;1.80;;
42198;SDS011;27868;45.184;5.786;2022-08-03T11:06:38;2.40;;;1.70;;
42198;SDS011;27868;45.184;5.786;2022-08-03T11:09:22;4.47;;;1.90;;
42198;SDS011;27868;45.184;5.786;2022-08-03T11:12:27;2.88;;;1.45;;
42198;SDS011;27868;45.184;5.786;2022-08-03T11:15:13;4.32;;;1.80;;
42198;SDS011;27868;45.184;5.786;2022-08-03T11:18:16;3.22;;;1.90;;
42198;SDS011;27868;45.184;5.786;2022-08-03T11:21:01;3.03;;;1.60;;
42198;SDS011;27868;45.184;5.786;2022-08-03T11:23:46;5.03;;;1.50;;
42198;SDS011;27868;45.184;5.786;2022-08-03T11:26:32;4.05;;;1.75;;
42198;SDS011;27868;45.184;5.786;2022-08-03T11:29:27;3.88;;;1.63;;
42198;SDS011;27868;45.184;5.786;2022-08-03T11:32:37;4.07;;;1.70;;
42198;SDS011;27868;45.184;5.786;2022-08-03T11:38:16;4.57;;;1.50;;
42198;SDS011;27868;45.184;5.786;2022-08-03T11:41:01;3.22;;;1.30;;
42198;SDS011;27868;45.184;5.786;2022-08-03T11:43:46;2.28;;;1.50;;
42198;SDS011;27868;45.184;5.786;2022-08-03T11:46:35;3.47;;;1.40;;
42198;SDS011;27868;45.184;5.786;2022-08-03T11:49:21;4.80;;;1.65;;
42198;SDS011;27868;45.184;5.786;2022-08-03T11:52:06;4.93;;;1.30;;
42198;SDS011;27868;45.184;5.786;2022-08-03T11:54:52;2.22;;;1.00;;
42198;SDS011;27868;45.184;5.786;2022-08-03T11:57:38;3.67;;;1.20;;
42198;SDS011;27868;45.184;5.786;2022-08-03T12:00:24;4.85;;;1.17;;
42198;SDS011;27868;45.184;5.786;2022-08-03T12:03:12;2.97;;;1.25;;
42198;SDS011;27868;45.184;5.786;2022-08-03T12:05:59;3.28;;;1.13;;
42198;SDS011;27868;45.184;5.786;2022-08-03T12:08:47;3.88;;;1.60;;
42198;SDS011;27868;45.184;5.786;2022-08-03T12:11:32;2.08;;;1.08;;
42198;SDS011;27868;45.184;5.786;2022-08-03T12:14:17;2.65;;;1.00;;
42198;SDS011;27868;45.184;5.786;2022-08-03T12:17:02;3.53;;;0.98;;
42198;SDS011;27868;45.184;5.786;2022-08-03T12:19:47;3.75;;;1.00;;
42198;SDS011;27868;45.184;5.786;2022-08-03T12:22:32;3.08;;;1.13;;
42198;SDS011;27868;45.184;5.786;2022-08-03T12:25:22;3.17;;;1.00;;
42198;SDS011;27868;45.184;5.786;2022-08-03T12:28:18;2.05;;;1.15;;
42198;SDS011;27868;45.184;5.786;2022-08-03T12:31:06;1.20;;;0.83;;
42198;SDS011;27868;45.184;5.786;2022-08-03T12:34:02;4.78;;;1.10;;
42198;SDS011;27868;45.184;5.786;2022-08-03T12:36:50;1.63;;;1.00;;
42198;SDS011;27868;45.184;5.786;2022-08-03T12:39:37;3.83;;;1.10;;
42198;SDS011;27868;45.184;5.786;2022-08-03T12:42:28;3.15;;;0.90;;
42198;SDS011;27868;45.184;5.786;2022-08-03T12:45:17;1.63;;;1.00;;
42198;SDS011;27868;45.184;5.786;2022-08-03T12:48:09;2.05;;;1.00;;
42198;SDS011;27868;45.184;5.786;2022-08-03T12:51:06;1.95;;;1.17;;
42198;SDS011;27868;45.184;5.786;2022-08-03T12:53:54;1.95;;;0.80;;
42198;SDS011;27868;45.184;5.786;2022-08-03T12:56:57;3.15;;;1.02;;
42198;SDS011;27868;45.184;5.786;2022-08-03T12:59:45;2.35;;;1.00;;
42198;SDS011;27868;45.184;5.786;2022-08-03T13:02:31;1.73;;;0.90;;
42198;SDS011;27868;45.184;5.786;2022-08-03T13:05:16;1.50;;;0.90;;
42198;SDS011;27868;45.184;5.786;2022-08-03T13:08:00;1.10;;;1.00;;
42198;SDS011;27868;45.184;5.786;2022-08-03T13:10:45;2.20;;;1.10;;
42198;SDS011;27868;45.184;5.786;2022-08-03T13:13:36;2.33;;;0.98;;
42198;SDS011;27868;45.184;5.786;2022-08-03T13:16:22;2.40;;;0.90;;
42198;SDS011;27868;45.184;5.786;2022-08-03T13:19:07;2.67;;;0.95;;
42198;SDS011;27868;45.184;5.786;2022-08-03T13:21:53;3.53;;;0.80;;
42198;SDS011;27868;45.184;5.786;2022-08-03T13:24:38;1.65;;;0.90;;
42198;SDS011;27868;45.184;5.786;2022-08-03T13:27:23;2.75;;;1.00;;
42198;SDS011;27868;45.184;5.786;2022-08-03T13:30:09;3.25;;;0.80;;
42198;SDS011;27868;45.184;5.786;2022-08-03T13:32:54;1.88;;;0.98;;
42198;SDS011;27868;45.184;5.786;2022-08-03T13:35:38;1.63;;;1.00;;
42198;SDS011;27868;45.184;5.786;2022-08-03T13:38:23;2.33;;;1.10;;
42198;SDS011;27868;45.184;5.786;2022-08-03T13:41:08;1.80;;;1.00;;
42198;SDS011;27868;45.184;5.786;2022-08-03T13:43:52;2.67;;;1.00;;
42198;SDS011;27868;45.184;5.786;2022-08-03T13:46:39;1.40;;;0.80;;
42198;SDS011;27868;45.184;5.786;2022-08-03T13:49:24;2.35;;;0.85;;
42198;SDS011;27868;45.184;5.786;2022-08-03T13:52:08;1.95;;;0.95;;
42198;SDS011;27868;45.184;5.786;2022-08-03T13:54:53;1.77;;;0.77;;
42198;SDS011;27868;45.184;5.786;2022-08-03T13:57:37;3.45;;;0.80;;
42198;SDS011;27868;45.184;5.786;2022-08-03T14:00:22;2.95;;;0.93;;
42198;SDS011;27868;45.184;5.786;2022-08-03T14:03:09;1.70;;;0.88;;
42198;SDS011;27868;45.184;5.786;2022-08-03T14:05:54;2.50;;;1.13;;
42198;SDS011;27868;45.184;5.786;2022-08-03T14:08:39;0.82;;;0.75;;
42198;SDS011;27868;45.184;5.786;2022-08-03T14:11:23;1.35;;;0.90;;
42198;SDS011;27868;45.184;5.786;2022-08-03T14:14:09;4.95;;;1.10;;
42198;SDS011;27868;45.184;5.786;2022-08-03T14:16:54;1.52;;;0.90;;
42198;SDS011;27868;45.184;5.786;2022-08-03T14:19:39;1.15;;;0.80;;
42198;SDS011;27868;45.184;5.786;2022-08-03T14:22:24;1.60;;;0.90;;
42198;SDS011;27868;45.184;5.786;2022-08-03T14:25:09;2.03;;;1.00;;
42198;SDS011;27868;45.184;5.786;2022-08-03T14:27:53;1.50;;;0.90;;
42198;SDS011;27868;45.184;5.786;2022-08-03T14:30:38;1.20;;;0.80;;
42198;SDS011;27868;45.184;5.786;2022-08-03T14:33:23;2.58;;;0.82;;
42198;SDS011;27868;45.184;5.786;2022-08-03T14:36:08;2.58;;;1.00;;
42198;SDS011;27868;45.184;5.786;2022-08-03T14:38:53;1.48;;;0.90;;
42198;SDS011;27868;45.184;5.786;2022-08-03T14:41:37;2.17;;;0.85;;
42198;SDS011;27868;45.184;5.786;2022-08-03T14:44:22;2.58;;;1.00;;
42198;SDS011;27868;45.184;5.786;2022-08-03T14:47:06;3.78;;;1.00;;
42198;SDS011;27868;45.184;5.786;2022-08-03T14:49:51;2.17;;;1.20;;
42198;SDS011;27868;45.184;5.786;2022-08-03T14:52:36;4.38;;;1.05;;
42198;SDS011;27868;45.184;5.786;2022-08-03T14:55:21;2.70;;;1.02;;
42198;SDS011;27868;45.184;5.786;2022-08-03T14:58:06;1.98;;;1.02;;
42198;SDS011;27868;45.184;5.786;2022-08-03T15:00:51;2.45;;;1.20;;
42198;SDS011;27868;45.184;5.786;2022-08-03T15:03:37;2.72;;;0.90;;
42198;SDS011;27868;45.184;5.786;2022-08-03T15:06:22;2.15;;;0.90;;
42198;SDS011;27868;45.184;5.786;2022-08-03T15:09:06;1.27;;;0.70;;
42198;SDS011;27868;45.184;5.786;2022-08-03T15:11:51;2.55;;;1.00;;
42198;SDS011;27868;45.184;5.786;2022-08-03T15:14:35;2.60;;;1.00;;
42198;SDS011;27868;45.184;5.786;2022-08-03T15:17:20;3.13;;;0.95;;
42198;SDS011;27868;45.184;5.786;2022-08-03T15:20:04;1.90;;;0.95;;
42198;SDS011;27868;45.184;5.786;2022-08-03T15:22:51;7.70;;;1.20;;
42198;SDS011;27868;45.184;5.786;2022-08-03T15:25:36;2.60;;;1.13;;
42198;SDS011;27868;45.184;5.786;2022-08-03T15:28:20;1.48;;;1.00;;
42198;SDS011;27868;45.184;5.786;2022-08-03T15:31:05;3.58;;;1.00;;
42198;SDS011;27868;45.184;5.786;2022-08-03T15:33:50;2.13;;;0.95;;
42198;SDS011;27868;45.184;5.786;2022-08-03T15:36:35;4.60;;;1.08;;
42198;SDS011;27868;45.184;5.786;2022-08-03T15:39:19;4.78;;;1.00;;
42198;SDS011;27868;45.184;5.786;2022-08-03T15:42:04;2.20;;;0.93;;
42198;SDS011;27868;45.184;5.786;2022-08-03T15:44:49;2.88;;;1.05;;
42198;SDS011;27868;45.184;5.786;2022-08-03T15:47:34;3.10;;;0.90;;
42198;SDS011;27868;45.184;5.786;2022-08-03T15:50:18;2.45;;;0.90;;
42198;SDS011;27868;45.184;5.786;2022-08-03T15:53:03;2.35;;;1.13;;
42198;SDS011;27868;45.184;5.786;2022-08-03T15:55:48;1.42;;;0.90;;
42198;SDS011;27868;45.184;5.786;2022-08-03T15:58:32;3.17;;;1.00;;
42198;SDS011;27868;45.184;5.786;2022-08-03T16:01:17;2.78;;;1.20;;
42198;SDS011;27868;45.184;5.786;2022-08-03T16:04:03;1.60;;;0.90;;
42198;SDS011;27868;45.184;5.786;2022-08-03T16:06:48;2.10;;;0.95;;
42198;SDS011;27868;45.184;5.786;2022-08-03T16:09:32;2.90;;;1.00;;
42198;SDS011;27868;45.184;5.786;2022-08-03T16:12:17;2.63;;;1.00;;
42198;SDS011;27868;45.184;5.786;2022-08-03T16:15:06;2.95;;;1.20;;
42198;SDS011;27868;45.184;5.786;2022-08-03T16:17:51;4.50;;;1.05;;
42198;SDS011;27868;45.184;5.786;2022-08-03T16:20:35;5.88;;;1.02;;
42198;SDS011;27868;45.184;5.786;2022-08-03T16:23:20;2.38;;;1.13;;
42198;SDS011;27868;45.184;5.786;2022-08-03T16:26:05;3.40;;;1.10;;
42198;SDS011;27868;45.184;5.786;2022-08-03T16:28:49;2.00;;;1.08;;
42198;SDS011;27868;45.184;5.786;2022-08-03T16:31:34;1.27;;;0.80;;
42198;SDS011;27868;45.184;5.786;2022-08-03T16:34:19;2.30;;;0.95;;
42198;SDS011;27868;45.184;5.786;2022-08-03T16:37:04;1.50;;;0.90;;
42198;SDS011;27868;45.184;5.786;2022-08-03T16:39:49;1.50;;;1.00;;
42198;SDS011;27868;45.184;5.786;2022-08-03T16:42:34;3.40;;;0.98;;
42198;SDS011;27868;45.184;5.786;2022-08-03T16:45:19;1.10;;;0.93;;
42198;SDS011;27868;45.184;5.786;2022-08-03T16:48:04;5.68;;;1.10;;
42198;SDS011;27868;45.184;5.786;2022-08-03T16:50:49;3.10;;;1.23;;
42198;SDS011;27868;45.184;5.786;2022-08-03T16:53:34;5.05;;;1.13;;